Aeroporto :
LOGIN :

Iscrizione | Disclaimer

   EN    FR    IT 

 










Sommario :    VFR   VFR Marginale   IFR   IFR Intensivo   IFR Molto Intensivo
Visibilità : 
Base nubi : 
>= 8 km
>= 3000ft
5 / 8 km
1000 / 3000 ft
1500m / 5 km
500 / 1000 ft
800 / 1500m
200 / 500 ft
< 800m
< 200 ft
Simboli :   Temporali  Nebbia  Neve Forte  Precipitazioni Forti  Vento > 20 kt
SIGMETs :   Varie  Temporali  Ghiacco  Turbolenza  Onda orograficha  Ceneri Vulcaniche






- Altitudine del aeroporto : 622 ft
- Codice IATA : SVO


UUEE - Sheremetyevo International

ULTIMO METAR :
  • 020200Z 05007MPS 020V080 CAVOK 10/06 Q1014 R06R/190057 NOSIG

METARs OBSOLETI :
  • 020130Z 05007MPS CAVOK 10/06 Q1014 R06R/190057 NOSIG
  • 020100Z 05006MPS CAVOK 09/06 Q1014 R06R/190057 NOSIG
  • 020030Z 05006MPS CAVOK 09/06 Q1014 R06R/190057 NOSIG
  • 020000Z 05006MPS CAVOK 10/06 Q1014 R06R/190057 NOSIG

TAF TAF UUEE
Valido dal 02 a 03 ore il 03 a 03 ore UTC


020159Z 0203/0303 04007MPS 9000 BKN016 TX12/0213Z TN10/0203Z
TEMPO 0203/0218 07009G14MPS 2900 -SHRA BKN016CB
TEMPO 0218/0303 -SHRA FEW005 SCT016CB



MetMap, La meteo Aeronautica in un colpo d'occhio ! - Copyright ORBIFLY Dicembre 2007 - Disclaimer

ORBIFLY MET'MAP TEAM :

Programmazione e sviluppo : Alexandra Zaïnal
Concezione : Baudouin d'Aumeries
Aiuto per la programmazione : Marc-Olivier Méhu
Supporto tecnico e logistico : Manuel Goepfert
Aiuto per la traduzione : Arnaldo La Scala

Contatto : metmap@orbifly.com




FONTI E CREDITI :

   NOAA